Time;durP1;ratioP1;P1;durP2;ratioP2;P2;SDS_P1;SDS_P2;PMS_P1;PMS_P2;Temp;Humidity;BMP_temperature;BMP_pressure;BME280_temperature;BME280_humidity;BME280_pressure;Samples;Min_cycle;Max_cycle;Signal;HPM_P1;HPM_P2
2022/06/09 00:01:28;;;;;;;11.12;9.90;;;;;;;20.83;68.84;98996.97;4368399;32;33805;-82
2022/06/09 00:04:26;;;;;;;11.65;9.52;;;;;;;20.67;69.38;98992.28;4368170;32;33102;-82
2022/06/09 00:06:59;;;;;;;12.07;9.60;;;;;;;20.75;69.30;98993.34;4355803;32;33986;-83
2022/06/09 00:09:31;;;;;;;10.65;9.40;;;;;;;20.75;69.31;98999.59;4368699;32;34382;-83
2022/06/09 00:20:24;;;;;;;13.82;9.98;;;;;;;20.93;68.59;99007.63;4370381;32;33639;-83
2022/06/09 00:23:05;;;;;;;10.57;9.00;;;;;;;20.84;68.80;99004.03;4355826;32;33049;-83
2022/06/09 00:25:35;;;;;;;13.77;8.52;;;;;;;20.89;68.64;99000.91;4367982;32;35129;-83
2022/06/09 00:28:03;;;;;;;11.43;8.32;;;;;;;20.81;68.67;99003.50;4370345;32;34129;-83
2022/06/09 00:30:31;;;;;;;10.32;9.23;;;;;;;20.84;68.38;98997.81;4375109;32;33121;-82
2022/06/09 00:32:59;;;;;;;12.70;8.65;;;;;;;20.78;68.47;98999.25;4368242;32;33813;-83
2022/06/09 00:35:27;;;;;;;11.60;10.07;;;;;;;20.73;68.56;98992.66;4372768;32;34189;-83
2022/06/09 00:37:55;;;;;;;15.68;8.38;;;;;;;20.62;68.97;98985.69;4364997;32;34434;-83
2022/06/09 00:40:24;;;;;;;9.93;8.93;;;;;;;20.69;68.74;98989.44;4373394;32;33929;-83
2022/06/09 00:42:52;;;;;;;10.98;9.15;;;;;;;20.71;68.63;98992.81;4369212;32;33211;-83
2022/06/09 00:45:35;;;;;;;14.65;10.00;;;;;;;20.60;69.01;98993.84;4369038;32;34320;-83
2022/06/09 00:48:12;;;;;;;12.50;9.82;;;;;;;20.67;68.79;98994.97;4366410;32;34299;-83
2022/06/09 00:50:40;;;;;;;11.60;9.55;;;;;;;20.71;68.63;98990.97;4360043;32;33538;-83
2022/06/09 00:53:16;;;;;;;13.00;10.10;;;;;;;20.63;68.87;98995.41;4354306;32;33447;-83
2022/06/09 00:55:44;;;;;;;11.57;9.23;;;;;;;20.59;69.07;99000.22;4354829;32;34023;-83
2022/06/09 00:58:16;;;;;;;10.75;9.65;;;;;;;20.55;69.30;98998.84;4352739;32;33407;-84
2022/06/09 01:00:48;;;;;;;14.55;10.85;;;;;;;20.48;69.55;98997.75;4359811;32;34038;-83
2022/06/09 01:03:17;;;;;;;14.95;10.05;;;;;;;20.42;70.18;99001.00;4353497;32;33326;-83
2022/06/09 01:05:48;;;;;;;11.43;10.23;;;;;;;20.46;70.05;98999.69;4352247;32;33037;-83
2022/06/09 01:08:17;;;;;;;11.27;9.93;;;;;;;20.62;69.50;98999.09;4353413;32;34489;-83
2022/06/09 01:10:45;;;;;;;12.02;10.23;;;;;;;20.52;69.97;98996.47;4352293;32;33243;-83
2022/06/09 01:13:13;;;;;;;12.00;10.73;;;;;;;20.62;69.52;98993.72;4355424;32;34621;-82
2022/06/09 01:15:51;;;;;;;14.45;10.35;;;;;;;20.58;69.69;98989.66;4359253;32;33709;-83
2022/06/09 01:18:37;;;;;;;11.60;10.15;;;;;;;20.58;69.96;98992.34;4359539;32;34222;-83
2022/06/09 01:21:23;;;;;;;15.85;12.05;;;;;;;20.84;68.72;98992.44;4361505;32;33360;-82
2022/06/09 01:24:18;;;;;;;14.75;11.05;;;;;;;20.59;69.74;98992.19;4360522;32;34005;-83
2022/06/09 01:27:16;;;;;;;13.35;10.05;;;;;;;20.69;69.50;98989.44;4359913;32;33598;-83
2022/06/09 01:29:49;;;;;;;14.02;10.35;;;;;;;20.56;70.09;98984.44;4359238;32;34429;-83
2022/06/09 01:32:35;;;;;;;12.30;11.10;;;;;;;20.56;70.03;98973.72;4354386;32;32241;-83
2022/06/09 01:35:13;;;;;;;12.13;10.80;;;;;;;20.59;70.13;98976.09;4349344;32;34498;-83
2022/06/09 01:37:49;;;;;;;11.75;9.85;;;;;;;20.61;70.13;98967.91;4355687;32;33676;-83
2022/06/09 01:40:19;;;;;;;11.23;9.80;;;;;;;20.68;69.97;98975.19;4355611;32;34093;-83
2022/06/09 01:42:49;;;;;;;12.77;10.55;;;;;;;20.51;70.62;98973.34;4362228;32;33912;-83
2022/06/09 01:45:23;;;;;;;10.68;9.40;;;;;;;20.59;70.41;98973.41;4349342;32;35130;-84
2022/06/09 01:48:00;;;;;;;11.60;10.43;;;;;;;20.63;70.04;98968.59;4353981;32;33907;-83
2022/06/09 01:50:36;;;;;;;10.98;9.63;;;;;;;20.61;70.26;98968.75;4370311;32;35149;-82
2022/06/09 01:53:17;;;;;;;11.57;9.55;;;;;;;20.55;70.54;98971.16;4374758;32;33424;-82
2022/06/09 01:55:50;;;;;;;22.02;11.48;;;;;;;20.74;69.94;98972.87;4371157;32;34314;-82
2022/06/09 01:58:22;;;;;;;13.10;10.55;;;;;;;20.76;69.70;98968.22;4370060;32;34375;-82
2022/06/09 02:00:52;;;;;;;10.93;9.68;;;;;;;20.79;69.53;98970.59;4370625;32;34118;-83
2022/06/09 02:03:24;;;;;;;12.20;10.02;;;;;;;20.81;69.39;98971.28;4368136;32;32853;-82
2022/06/09 02:05:54;;;;;;;12.27;10.68;;;;;;;20.71;69.71;98960.62;4368690;32;34642;-82
2022/06/09 02:08:23;;;;;;;12.23;10.68;;;;;;;20.70;69.80;98967.84;4368928;32;33386;-82
2022/06/09 02:10:59;;;;;;;11.68;10.48;;;;;;;20.61;70.19;98974.13;4357444;32;34246;-82
2022/06/09 02:13:31;;;;;;;11.20;10.07;;;;;;;20.46;70.90;98983.59;4368874;32;33381;-82
2022/06/09 02:16:04;;;;;;;10.52;9.45;;;;;;;20.58;70.48;98981.59;4375198;32;33652;-82
2022/06/09 02:18:37;;;;;;;10.93;9.73;;;;;;;20.48;70.97;98980.81;4369689;32;34070;-82
2022/06/09 02:21:18;;;;;;;12.90;9.90;;;;;;;20.56;70.71;98973.72;4367450;32;34688;-82
2022/06/09 02:23:53;;;;;;;12.80;10.93;;;;;;;20.74;70.09;98971.03;4358648;32;33921;-82
2022/06/09 02:26:21;;;;;;;11.88;10.52;;;;;;;20.88;69.35;98975.03;4369112;32;33649;-82
2022/06/09 02:28:49;;;;;;;13.23;10.18;;;;;;;21.05;68.62;98971.53;4357115;32;33568;-83
2022/06/09 02:31:22;;;;;;;14.35;11.43;;;;;;;20.97;68.90;98979.50;4369436;32;33880;-82
2022/06/09 02:33:51;;;;;;;13.02;10.38;;;;;;;20.95;69.11;98976.12;4369656;32;33776;-82
2022/06/09 02:36:19;;;;;;;16.98;11.77;;;;;;;20.70;70.04;98977.72;4370083;32;32778;-82
2022/06/09 02:38:47;;;;;;;12.50;11.07;;;;;;;20.78;69.94;98976.97;4375218;32;33897;-81
2022/06/09 02:41:15;;;;;;;14.50;11.10;;;;;;;20.48;71.18;98976.31;4369280;32;34195;-82
2022/06/09 02:43:45;;;;;;;11.12;9.93;;;;;;;20.51;71.28;98976.00;4371022;32;32413;-82
2022/06/09 02:46:17;;;;;;;14.95;11.60;;;;;;;20.67;70.72;98973.50;4370270;32;33493;-82
2022/06/09 02:48:45;;;;;;;;;;;;;;;20.62;70.81;98985.69;4361876;32;33409;-82
2022/06/09 02:51:18;;;;;;;11.85;9.45;;;;;;;20.60;70.88;98980.44;4357429;32;34512;-82
2022/06/09 02:54:05;;;;;;;12.80;10.73;;;;;;;20.64;70.77;98981.84;4373695;32;34337;-82
2022/06/09 02:56:34;;;;;;;12.13;10.88;;;;;;;20.91;69.52;98977.44;4358956;32;33393;-83
2022/06/09 02:59:02;;;;;;;17.58;11.95;;;;;;;20.87;69.54;98987.63;4367042;32;33494;-82
2022/06/09 03:01:31;;;;;;;13.82;10.52;;;;;;;20.60;70.84;98991.19;4366294;32;34746;-83
2022/06/09 03:03:59;;;;;;;16.83;12.85;;;;;;;20.58;70.98;98987.81;4369773;32;33462;-82
2022/06/09 03:06:28;;;;;;;14.77;11.48;;;;;;;20.69;70.59;98974.19;4374474;32;33627;-82
2022/06/09 03:08:56;;;;;;;15.93;12.30;;;;;;;20.75;70.54;98977.25;4368726;32;34892;-82
2022/06/09 03:11:25;;;;;;;16.90;12.23;;;;;;;20.96;69.70;98985.88;4375188;32;33865;-83
2022/06/09 03:13:52;;;;;;;21.15;13.57;;;;;;;20.97;69.99;98982.19;4376030;32;33592;-82
2022/06/09 03:16:20;;;;;;;19.58;13.23;;;;;;;20.73;70.97;98984.63;4375223;32;34232;-82
2022/06/09 03:18:50;;;;;;;21.67;15.02;;;;;;;20.70;71.36;98983.94;4355359;32;34389;-82
2022/06/09 03:21:17;;;;;;;24.90;14.95;;;;;;;20.90;70.80;98978.44;4373185;32;33857;-82
2022/06/09 03:23:46;;;;;;;23.05;14.98;;;;;;;20.76;71.59;98977.13;4373503;32;35310;-83
2022/06/09 03:26:14;;;;;;;26.15;14.05;;;;;;;20.91;71.18;98975.59;4374508;32;32937;-82
2022/06/09 03:28:42;;;;;;;24.45;15.10;;;;;;;20.91;71.45;98980.13;4369375;32;34796;-82
2022/06/09 03:31:09;;;;;;;23.23;15.95;;;;;;;20.89;71.65;98976.75;4360256;32;33313;-81
2022/06/09 03:33:38;;;;;;;25.98;16.52;;;;;;;20.89;71.98;98974.91;4368483;32;34332;-81
2022/06/09 03:36:06;;;;;;;22.35;14.80;;;;;;;21.22;70.72;98978.75;4349247;32;32736;-83
2022/06/09 03:38:34;;;;;;;25.88;16.45;;;;;;;20.96;72.18;98983.19;4363402;32;33304;-82
2022/06/09 03:41:04;;;;;;;22.75;16.15;;;;;;;21.10;71.89;98976.44;4368065;32;34914;-82
2022/06/09 03:43:32;;;;;;;24.17;17.15;;;;;;;21.13;71.87;98976.97;4369991;32;31981;-82
2022/06/09 03:46:01;;;;;;;26.23;17.73;;;;;;;21.17;71.78;98977.50;4370021;32;33733;-83
2022/06/09 03:48:29;;;;;;;29.40;18.27;;;;;;;21.42;70.93;98978.59;4367868;32;34674;-82
2022/06/09 03:50:57;;;;;;;33.70;18.25;;;;;;;21.43;70.63;98977.59;4357026;32;34332;-82
2022/06/09 03:53:25;;;;;;;28.08;17.75;;;;;;;21.30;71.44;98975.25;4371881;32;32662;-82
2022/06/09 03:55:54;;;;;;;30.67;17.92;;;;;;;21.28;71.94;98971.91;4362711;32;33331;-83
2022/06/09 03:58:24;;;;;;;29.92;18.40;;;;;;;21.46;71.37;98975.44;4369084;32;34033;-83
2022/06/09 04:00:52;;;;;;;28.40;18.23;;;;;;;21.37;71.95;98972.84;4367101;32;33787;-83
2022/06/09 04:03:20;;;;;;;26.83;17.83;;;;;;;21.43;72.03;98977.59;4367123;32;34334;-83
2022/06/09 04:05:47;;;;;;;32.45;19.30;;;;;;;21.82;70.84;98977.19;4362096;32;34176;-83
2022/06/09 04:08:15;;;;;;;32.20;18.90;;;;;;;21.96;69.69;98979.28;4354450;32;34918;-82
2022/06/09 04:10:48;;;;;;;32.65;20.12;;;;;;;21.83;69.90;98974.31;4367173;32;34809;-82
2022/06/09 04:13:17;;;;;;;30.67;19.00;;;;;;;21.77;70.44;98972.28;4368431;32;33332;-82
2022/06/09 04:15:47;;;;;;;32.45;20.77;;;;;;;21.49;71.82;98974.25;4368001;32;33654;-83
2022/06/09 04:18:14;;;;;;;35.30;21.75;;;;;;;21.45;72.21;98971.03;4371476;32;33768;-83
2022/06/09 04:20:42;;;;;;;35.25;21.48;;;;;;;21.37;72.40;98972.84;4357019;32;34227;-83
2022/06/09 04:23:10;;;;;;;30.65;20.17;;;;;;;21.53;72.45;98967.59;4352239;32;33916;-83
2022/06/09 04:25:39;;;;;;;28.87;20.58;;;;;;;21.50;72.79;98972.41;4369561;32;34407;-84
2022/06/09 04:28:06;;;;;;;30.23;20.35;;;;;;;21.85;71.01;98966.13;4367129;32;88298;-83
2022/06/09 04:30:35;;;;;;;30.60;19.55;;;;;;;22.22;69.35;98972.06;4372073;32;32401;-84
2022/06/09 04:33:03;;;;;;;29.98;20.67;;;;;;;22.34;68.25;98971.75;4359330;32;33079;-84
2022/06/09 04:35:32;;;;;;;28.00;19.08;;;;;;;22.06;68.89;98985.38;4358814;32;33504;-83
2022/06/09 04:38:01;;;;;;;29.45;19.27;;;;;;;21.91;70.14;98986.97;4366087;32;32072;-84
2022/06/09 04:40:33;;;;;;;27.15;19.83;;;;;;;22.07;70.21;98987.06;4358093;32;34116;-84
2022/06/09 04:43:05;;;;;;;29.02;18.23;;;;;;;21.98;70.92;98986.19;4364159;32;33943;-82
2022/06/09 04:45:33;;;;;;;31.98;19.55;;;;;;;22.34;69.57;98993.28;4365541;32;33828;-82
2022/06/09 04:48:03;;;;;;;27.25;18.37;;;;;;;22.33;69.58;99000.50;4371909;32;33621;-83
2022/06/09 04:50:31;;;;;;;26.85;17.58;;;;;;;22.32;69.18;99003.34;4370036;32;34197;-83
2022/06/09 04:53:01;;;;;;;24.58;18.05;;;;;;;22.05;70.64;99005.19;4373480;32;34101;-84
2022/06/09 04:55:30;;;;;;;29.25;18.30;;;;;;;22.22;70.63;99012.38;4365000;32;33747;-85
2022/06/09 04:57:59;;;;;;;24.27;17.33;;;;;;;22.45;69.16;99003.72;4372042;32;35843;-83
2022/06/09 05:00:36;;;;;;;25.60;17.40;;;;;;;22.69;67.71;99002.97;4363424;32;33417;-83
2022/06/09 05:05:47;;;;;;;21.55;15.73;;;;;;;22.35;69.36;99000.31;4357577;32;32899;-83
2022/06/09 05:08:15;;;;;;;21.73;16.40;;;;;;;22.28;69.79;99000.13;4366424;32;33466;-82
2022/06/09 05:10:45;;;;;;;23.40;16.42;;;;;;;22.56;68.91;99003.44;4365179;32;33860;-83
2022/06/09 05:13:19;;;;;;;19.62;16.40;;;;;;;22.52;69.04;99007.47;4368397;32;35304;-82
2022/06/09 05:15:54;;;;;;;21.80;15.55;;;;;;;22.21;70.36;99013.38;4365899;32;33940;-84
2022/06/09 05:18:28;;;;;;;19.67;15.00;;;;;;;22.30;70.46;99003.50;4365415;32;34077;-84
2022/06/09 05:20:57;;;;;;;16.75;13.85;;;;;;;22.41;70.35;98999.69;4366475;32;33696;-84
2022/06/09 05:23:27;;;;;;;19.80;14.45;;;;;;;22.37;70.21;99004.56;4366388;32;33496;-85
2022/06/09 05:25:57;;;;;;;18.52;14.98;;;;;;;22.66;69.60;99009.53;4363069;32;34667;-85
2022/06/09 05:28:28;;;;;;;15.95;13.73;;;;;;;22.90;68.01;99014.19;4340065;32;34532;-84
2022/06/09 05:30:59;;;;;;;14.95;13.05;;;;;;;22.71;68.81;99017.97;4372504;32;32588;-85
2022/06/09 05:33:32;;;;;;;11.00;9.80;;;;;;;22.68;66.67;99022.81;4371435;32;32273;-84
2022/06/09 05:36:01;;;;;;;12.82;11.52;;;;;;;22.68;67.13;99018.28;4348191;32;32897;-84
2022/06/09 05:46:58;;;;;;;16.37;13.27;;;;;;;22.96;64.83;99031.50;4364906;32;31739;-85
2022/06/09 05:49:26;;;;;;;15.15;13.45;;;;;;;22.99;65.41;99036.56;4348480;32;32897;-87
2022/06/09 05:51:55;;;;;;;16.62;14.73;;;;;;;23.08;65.57;99030.19;4356750;32;33003;-87
2022/06/09 05:54:24;;;;;;;17.90;13.38;;;;;;;22.58;67.79;99031.03;4356861;32;33175;-87
2022/06/09 05:56:54;;;;;;;14.45;12.93;;;;;;;22.83;66.43;99031.94;4344638;32;33851;-87
2022/06/09 05:59:21;;;;;;;16.35;11.85;;;;;;;23.40;65.04;99023.97;4345431;32;33929;-87
2022/06/09 06:01:49;;;;;;;18.92;14.32;;;;;;;23.32;63.78;99025.84;4357885;32;34249;-87
2022/06/09 06:04:18;;;;;;;23.42;14.27;;;;;;;23.36;65.23;99027.19;4347516;32;33878;-87
2022/06/09 06:06:48;;;;;;;19.40;14.93;;;;;;;23.07;66.57;99028.50;4359733;32;34269;-87
2022/06/09 06:09:18;;;;;;;20.90;15.75;;;;;;;23.18;66.66;99030.88;4358779;32;32538;-87
2022/06/09 06:11:48;;;;;;;23.15;16.15;;;;;;;23.49;65.37;99038.31;4351084;32;34498;-87
2022/06/09 06:14:27;;;;;;;21.55;16.77;;;;;;;23.20;66.12;99039.63;4350605;32;32847;-87
2022/06/09 06:17:04;;;;;;;20.27;16.58;;;;;;;23.20;65.66;99042.31;4358360;32;34358;-87
2022/06/09 06:19:35;;;;;;;23.42;16.67;;;;;;;23.41;62.66;99041.03;4338363;32;32953;-87
2022/06/09 06:22:09;;;;;;;22.45;15.85;;;;;;;23.35;62.68;99042.50;4357609;32;33735;-88
2022/06/09 06:24:37;;;;;;;26.60;17.60;;;;;;;22.86;64.33;99047.78;4359683;32;32552;-88
2022/06/09 06:27:05;;;;;;;26.37;18.67;;;;;;;22.97;64.86;99043.97;4356687;32;33347;-88
2022/06/09 06:30:00;;;;;;;33.03;19.87;;;;;;;23.07;63.84;99044.66;4361312;32;35196;-87
2022/06/09 06:32:30;;;;;;;33.00;21.92;;;;;;;23.37;62.45;99042.34;4356424;32;33913;-88
2022/06/09 06:34:58;;;;;;;30.92;21.30;;;;;;;23.10;64.19;99046.19;4356979;32;34169;-88
2022/06/09 06:37:26;;;;;;;30.90;20.95;;;;;;;23.18;63.36;99040.81;4359086;32;33152;-88
2022/06/09 06:39:54;;;;;;;33.17;19.52;;;;;;;23.41;63.44;99038.31;4342334;32;33081;-88
2022/06/09 06:42:22;;;;;;;26.50;18.90;;;;;;;23.01;64.17;99042.63;4359343;32;33902;-88
2022/06/09 06:44:51;;;;;;;23.10;16.00;;;;;;;22.90;65.50;99045.63;4358079;32;34448;-88
2022/06/09 06:47:19;;;;;;;21.67;16.45;;;;;;;22.63;66.67;99046.69;4338408;32;33230;-88
2022/06/09 06:49:47;;;;;;;21.33;15.50;;;;;;;22.53;67.51;99044.12;4364580;32;32157;-87
2022/06/09 06:52:17;;;;;;;20.17;14.60;;;;;;;22.75;67.33;99046.22;4350371;32;34565;-88
2022/06/09 06:54:46;;;;;;;20.42;14.35;;;;;;;22.65;68.09;99040.16;4349586;32;34466;-88
2022/06/09 06:57:16;;;;;;;13.18;10.30;;;;;;;23.05;67.16;99038.59;4359588;32;33663;-88
2022/06/09 06:59:44;;;;;;;16.08;10.18;;;;;;;22.55;67.45;99044.81;4350510;32;34887;-88
2022/06/09 07:02:13;;;;;;;12.98;7.75;;;;;;;22.70;67.59;99048.56;4356242;32;34504;-88
2022/06/09 07:04:41;;;;;;;10.18;7.60;;;;;;;22.57;66.67;99056.25;4349429;32;33903;-88
2022/06/09 07:07:10;;;;;;;9.05;7.70;;;;;;;22.66;66.77;99057.13;4350609;32;33555;-88
2022/06/09 07:09:38;;;;;;;8.48;6.87;;;;;;;22.55;67.41;99066.34;4361278;32;32771;-89
2022/06/09 07:12:06;;;;;;;9.20;7.07;;;;;;;22.45;66.72;99068.28;4351662;32;34127;-88
2022/06/09 07:14:35;;;;;;;12.40;6.90;;;;;;;22.36;67.03;99074.62;4342582;32;33721;-88
2022/06/09 07:17:05;;;;;;;8.15;7.32;;;;;;;22.18;68.16;99085.47;4351954;32;34654;-88
2022/06/09 07:19:33;;;;;;;9.23;7.80;;;;;;;22.03;69.45;99076.25;4358038;32;33917;-88
2022/06/09 07:22:02;;;;;;;9.90;7.55;;;;;;;22.18;68.73;99069.34;4358921;32;34341;-87
2022/06/09 07:24:30;;;;;;;10.50;7.93;;;;;;;22.31;68.53;99058.13;4344723;32;33140;-86
2022/06/09 07:27:04;;;;;;;13.20;8.75;;;;;;;22.47;68.32;99056.37;4346403;32;34590;-87
2022/06/09 07:29:32;;;;;;;18.87;8.18;;;;;;;22.50;68.34;99063.25;4350962;32;33589;-86
2022/06/09 07:32:04;;;;;;;;;;;;;;;22.18;69.43;99061.28;4352903;32;32930;-86
2022/06/09 07:34:33;;;;;;;13.45;7.30;;;;;;;22.15;69.75;99070.47;4358508;32;31294;-87
2022/06/09 07:37:01;;;;;;;9.70;6.43;;;;;;;22.39;68.58;99071.63;4357202;32;34087;-87
2022/06/09 07:39:30;;;;;;;14.80;6.70;;;;;;;21.98;70.27;99074.03;4348251;32;31736;-86
2022/06/09 07:41:58;;;;;;;8.23;7.15;;;;;;;22.04;70.65;99068.03;4358782;32;34178;-87
2022/06/09 07:44:33;;;;;;;9.38;6.93;;;;;;;21.93;70.95;99065.59;4360592;32;34004;-87
2022/06/09 07:47:01;;;;;;;8.13;7.00;;;;;;;22.17;70.68;99073.88;4357137;32;34439;-87
2022/06/09 07:49:29;;;;;;;8.75;7.18;;;;;;;22.27;71.67;99075.62;4353915;32;33769;-87
2022/06/09 07:51:58;;;;;;;17.48;6.07;;;;;;;22.38;71.37;99067.25;4369860;32;33818;-87
2022/06/09 07:54:27;;;;;;;8.40;5.70;;;;;;;22.57;71.46;99058.94;4367832;32;34099;-87
2022/06/09 07:56:58;;;;;;;6.47;4.82;;;;;;;23.00;68.75;99057.09;4364617;32;33227;-87
2022/06/09 07:59:28;;;;;;;5.97;4.22;;;;;;;23.19;68.99;99058.66;4361487;32;33735;-87
2022/06/09 08:01:56;;;;;;;4.82;4.00;;;;;;;23.13;67.19;99068.25;4374895;32;33873;-87
2022/06/09 08:04:30;;;;;;;4.50;3.20;;;;;;;23.09;66.55;99063.34;4367772;32;33520;-87
2022/06/09 08:06:59;;;;;;;8.40;3.58;;;;;;;23.65;63.89;99054.53;4356971;32;34506;-87
2022/06/09 08:09:30;;;;;;;6.55;4.75;;;;;;;23.87;63.78;99046.75;4375203;32;33222;-86
2022/06/09 08:12:00;;;;;;;6.50;5.03;;;;;;;23.70;64.04;99054.84;4370051;32;32596;-86
2022/06/09 08:14:32;;;;;;;5.87;4.35;;;;;;;23.89;63.76;99052.81;4369984;32;32511;-87
2022/06/09 08:17:00;;;;;;;7.80;4.45;;;;;;;23.77;63.66;99047.75;4376076;32;34190;-87
2022/06/09 08:19:28;;;;;;;5.07;4.45;;;;;;;23.92;63.39;99049.78;4358096;32;34433;-87
2022/06/09 08:21:57;;;;;;;6.28;4.62;;;;;;;23.32;62.84;99060.88;4369978;32;33901;-87
2022/06/09 08:24:26;;;;;;;5.68;5.12;;;;;;;23.42;65.63;99054.31;4357595;32;33372;-87
2022/06/09 08:26:56;;;;;;;9.65;6.25;;;;;;;23.67;65.19;99047.09;4368219;32;34526;-87
2022/06/09 08:29:25;;;;;;;7.57;5.40;;;;;;;23.75;65.10;99043.56;4366107;32;33497;-87
2022/06/09 08:31:55;;;;;;;7.62;6.22;;;;;;;23.13;67.15;99051.25;4354904;32;34819;-86
2022/06/09 08:34:23;;;;;;;6.60;4.95;;;;;;;23.64;66.70;99044.75;4369447;32;34389;-87
2022/06/09 08:36:52;;;;;;;5.82;3.33;;;;;;;23.92;64.96;99045.22;4366400;32;33346;-87
2022/06/09 08:39:20;;;;;;;7.57;4.20;;;;;;;23.79;61.55;99049.47;4370803;32;34771;-87
2022/06/09 08:42:22;;;;;;;3.72;3.30;;;;;;;23.57;62.54;99050.94;4369158;32;34181;-86
2022/06/09 08:44:56;;;;;;;2.40;2.20;;;;;;;23.59;64.10;99041.66;4351767;32;33563;-87
2022/06/09 08:47:57;;;;;;;3.42;2.70;;;;;;;23.89;60.22;99050.13;4370128;32;35736;-87
2022/06/09 08:50:34;;;;;;;6.87;4.25;;;;;;;23.65;61.40;99049.13;4350098;32;33816;-87
2022/06/09 08:53:09;;;;;;;3.85;3.12;;;;;;;23.40;65.05;99039.31;4366773;32;33024;-87
2022/06/09 08:55:42;;;;;;;4.18;3.53;;;;;;;23.99;59.32;99037.31;4356907;32;32366;-87
2022/06/09 08:58:32;;;;;;;3.85;3.00;;;;;;;23.69;61.17;99044.22;4372371;32;33306;-87
2022/06/09 09:01:09;;;;;;;5.43;4.10;;;;;;;23.96;61.49;99040.34;4359013;32;35153;-87
2022/06/09 09:03:43;;;;;;;5.90;4.68;;;;;;;23.61;61.36;99045.06;4371753;32;33451;-87
2022/06/09 09:06:25;;;;;;;6.07;4.25;;;;;;;23.90;62.16;99039.16;4371927;32;31394;-87
2022/06/09 09:09:12;;;;;;;8.35;5.10;;;;;;;23.99;60.63;99029.22;4359472;32;33330;-87
2022/06/09 09:11:51;;;;;;;;;;;;;;;23.75;61.28;99022.84;4365960;32;33648;-87
2022/06/09 09:14:30;;;;;;;12.32;5.57;;;;;;;23.76;61.71;99027.22;4372534;32;34179;-87
2022/06/09 09:17:25;;;;;;;5.47;4.93;;;;;;;23.62;63.48;99033.25;4367315;32;33376;-87
2022/06/09 09:20:02;;;;;;;7.40;4.93;;;;;;;23.62;62.49;99025.19;4372549;32;34298;-87
2022/06/09 09:22:42;;;;;;;6.65;5.18;;;;;;;23.57;63.98;99022.16;4364488;32;34020;-87
2022/06/09 09:25:48;;;;;;;7.30;5.20;;;;;;;23.90;61.11;99016.75;4358489;32;34875;-86
2022/06/09 09:28:31;;;;;;;6.78;5.22;;;;;;;24.02;61.50;99020.75;4371483;32;32901;-87
2022/06/09 09:31:32;;;;;;;6.22;4.82;;;;;;;24.06;61.11;99024.81;4372380;32;32021;-86
2022/06/09 09:34:01;;;;;;;7.15;4.00;;;;;;;23.72;60.06;99017.78;4370488;32;33590;-87
2022/06/09 09:36:37;;;;;;;5.15;3.80;;;;;;;23.99;59.26;99007.66;4368908;32;33814;-87
2022/06/09 09:39:08;;;;;;;4.18;2.85;;;;;;;24.45;59.71;99007.84;4364047;32;33360;-87
2022/06/09 09:41:37;;;;;;;4.18;2.95;;;;;;;24.98;58.86;99004.38;4364109;32;33769;-87
2022/06/09 09:46:56;;;;;;;3.65;3.35;;;;;;;24.94;56.00;99013.00;4357320;32;33072;-87
2022/06/09 09:49:40;;;;;;;6.65;4.30;;;;;;;25.29;56.47;99006.22;4369600;32;33607;-87
2022/06/09 09:52:29;;;;;;;5.80;4.47;;;;;;;25.76;55.88;99002.47;4348909;32;33011;-87
2022/06/09 09:54:59;;;;;;;4.47;3.72;;;;;;;25.67;55.05;98998.97;4371379;32;32907;-88
2022/06/09 09:57:30;;;;;;;3.28;2.97;;;;;;;26.10;56.21;99015.47;4358590;32;33549;-87
2022/06/09 09:59:59;;;;;;;5.05;3.20;;;;;;;26.40;53.36;99007.38;4371056;32;34019;-88
2022/06/09 10:08:42;;;;;;;5.28;3.65;;;;;;;26.97;48.12;98982.25;4371702;32;34187;-87
2022/06/09 10:14:47;;;;;;;4.18;3.70;;;;;;;26.43;50.62;98972.66;4373273;32;34476;-88
2022/06/09 10:17:52;;;;;;;6.40;3.40;;;;;;;26.57;49.68;98976.34;4371358;32;34063;-87
2022/06/09 10:21:01;;;;;;;3.58;3.17;;;;;;;26.48;49.87;98974.78;4361465;32;36074;-88
2022/06/09 10:23:41;;;;;;;4.05;3.53;;;;;;;26.47;50.28;98981.25;4355248;32;31956;-88
2022/06/09 10:26:22;;;;;;;5.03;4.28;;;;;;;25.88;54.83;98983.94;4366171;32;33881;-88
2022/06/09 10:29:04;;;;;;;4.93;4.07;;;;;;;25.73;52.54;98982.03;4357634;32;33637;-88
2022/06/09 10:31:45;;;;;;;4.22;3.80;;;;;;;25.90;51.39;98990.00;4373477;32;34087;-88
2022/06/09 10:34:27;;;;;;;6.75;3.80;;;;;;;25.90;51.77;98984.56;4359256;32;32171;-88
2022/06/09 10:37:02;;;;;;;9.05;5.07;;;;;;;26.04;52.78;98984.59;4367358;32;34005;-88
2022/06/09 10:39:51;;;;;;;5.50;4.30;;;;;;;26.01;51.72;98984.94;4372785;32;32938;-89
2022/06/09 10:42:23;;;;;;;5.30;4.32;;;;;;;25.54;52.77;98977.09;4372205;32;34005;-88
2022/06/09 10:45:10;;;;;;;5.60;4.80;;;;;;;25.44;52.73;98979.22;4373450;32;33045;-88
2022/06/09 10:57:05;;;;;;;6.78;5.47;;;;;;;26.22;51.19;98948.22;4372324;32;32828;-88
2022/06/09 11:02:21;;;;;;;8.50;5.65;;;;;;;26.10;54.93;98939.72;4358705;32;33996;-88
2022/06/09 11:04:55;;;;;;;6.80;5.43;;;;;;;26.17;51.00;98942.53;4353476;32;34180;-88
2022/06/09 11:07:49;;;;;;;5.30;4.70;;;;;;;26.52;52.33;98943.59;4373390;32;33404;-88
2022/06/09 11:13:23;;;;;;;4.82;4.32;;;;;;;27.33;47.93;98929.88;4369627;32;34128;-88
2022/06/09 11:16:14;;;;;;;6.53;4.60;;;;;;;27.40;47.40;98925.34;4366858;32;33830;-88
2022/06/09 11:18:53;;;;;;;5.37;4.47;;;;;;;27.15;48.95;98928.44;4361230;32;32879;-88
2022/06/09 11:21:58;;;;;;;6.30;4.25;;;;;;;27.43;48.77;98927.66;4372140;32;31629;-89
2022/06/09 11:24:35;;;;;;;11.50;4.03;;;;;;;27.45;46.68;98921.00;4357309;32;33354;-88
2022/06/09 11:27:23;;;;;;;6.22;4.62;;;;;;;27.26;47.48;98908.97;4346994;32;33314;-89
2022/06/09 11:30:00;;;;;;;3.12;2.75;;;;;;;27.05;49.13;98901.66;4374448;32;32982;-89
2022/06/09 11:33:03;;;;;;;4.65;3.55;;;;;;;27.18;50.06;98892.84;4370959;32;34142;-88
2022/06/09 11:35:52;;;;;;;5.03;4.03;;;;;;;27.03;50.16;98889.34;4357502;32;33660;-89
2022/06/09 11:38:33;;;;;;;3.92;3.47;;;;;;;26.84;51.01;98890.84;4376088;32;33863;-88
2022/06/09 11:41:13;;;;;;;4.18;3.87;;;;;;;27.02;49.69;98895.81;4372050;32;33934;-89
2022/06/09 11:44:05;;;;;;;5.57;4.65;;;;;;;26.89;51.93;98890.25;4354970;32;32955;-89
2022/06/09 11:46:39;;;;;;;6.32;4.85;;;;;;;25.79;55.31;98893.94;4369904;32;34153;-89
2022/06/09 11:49:30;;;;;;;5.55;4.37;;;;;;;25.91;55.04;98895.13;4367431;32;32863;-89
2022/06/09 11:52:07;;;;;;;5.55;4.68;;;;;;;26.16;55.09;98901.09;4366536;32;33051;-88
2022/06/09 11:54:51;;;;;;;11.45;5.65;;;;;;;25.08;56.66;98901.53;4356802;32;33664;-86
2022/06/09 11:57:24;;;;;;;5.25;4.15;;;;;;;24.51;61.05;98910.00;4374755;32;33416;-87
2022/06/09 12:00:01;;;;;;;6.45;4.62;;;;;;;23.59;59.14;98941.13;4360784;32;35776;-87
2022/06/09 15:08:31;;;;;;;3.75;2.17;;;;;;;22.85;66.97;98992.25;4781990;27;20098;-84
2022/06/09 15:10:59;;;;;;;3.65;2.60;;;;;;;22.80;66.70;98991.06;4388145;32;34712;-84
2022/06/09 15:13:27;;;;;;;3.85;2.75;;;;;;;22.34;68.75;98991.41;4373806;32;34522;-84
2022/06/09 15:15:56;;;;;;;3.15;2.20;;;;;;;22.51;66.98;98988.81;4381385;32;32836;-84
2022/06/09 15:18:31;;;;;;;2.55;2.35;;;;;;;22.49;68.20;98986.25;4377627;32;33615;-84
2022/06/09 15:20:59;;;;;;;7.47;2.22;;;;;;;22.69;67.29;98986.81;4376717;32;34003;-83
2022/06/09 15:23:27;;;;;;;7.93;2.90;;;;;;;22.63;67.66;98992.88;4382152;32;32826;-84
2022/06/09 15:25:56;;;;;;;3.03;2.42;;;;;;;22.79;66.84;98997.44;4372583;32;32691;-84
2022/06/09 15:28:25;;;;;;;3.58;2.47;;;;;;;22.81;66.40;98995.44;4365291;32;33125;-84
2022/06/09 15:30:54;;;;;;;3.95;2.33;;;;;;;22.92;66.41;98990.62;4375563;32;34304;-84
2022/06/09 15:33:25;;;;;;;6.40;2.90;;;;;;;22.82;66.86;98994.44;4388059;32;33942;-85
2022/06/09 15:35:57;;;;;;;3.15;2.55;;;;;;;22.43;69.27;98989.63;4377997;32;33515;-84
2022/06/09 15:38:26;;;;;;;3.90;2.10;;;;;;;22.41;68.61;98983.56;4368707;32;32857;-84
2022/06/09 15:40:54;;;;;;;3.90;2.10;;;;;;;22.52;67.82;98980.56;4387260;32;32941;-84
2022/06/09 15:43:22;;;;;;;2.85;2.08;;;;;;;22.63;67.27;98988.31;4372060;32;33882;-84
2022/06/09 15:45:51;;;;;;;3.90;2.00;;;;;;;22.49;67.81;98984.41;4386847;32;33282;-84